createdAt,value
2019-02-23T00:00:40.142Z,39.79
2019-02-23T00:05:42.816Z,39.74
2019-02-23T00:10:45.518Z,39.77
2019-02-23T00:15:48.185Z,39.69
2019-02-23T00:20:50.854Z,39.64
2019-02-23T00:25:53.501Z,39.58
2019-02-23T00:30:56.150Z,39.50
2019-02-23T00:35:58.824Z,39.44
2019-02-23T00:41:01.484Z,39.49
2019-02-23T00:46:04.162Z,39.38
2019-02-23T00:51:06.967Z,39.32
2019-02-23T00:56:09.620Z,39.27
2019-02-23T01:01:12.288Z,39.22
2019-02-23T01:06:15.000Z,39.21
2019-02-23T01:11:17.656Z,39.09
2019-02-23T01:21:22.111Z,38.98
2019-02-23T01:26:24.794Z,38.92
2019-02-23T01:31:27.456Z,38.90
2019-02-23T01:36:30.128Z,38.85
2019-02-23T01:41:32.864Z,38.84
2019-02-23T01:46:35.538Z,38.82
2019-02-23T01:51:38.201Z,38.74
2019-02-23T01:56:40.872Z,38.69
2019-02-23T02:01:43.522Z,38.62
2019-02-23T02:06:46.214Z,38.58
2019-02-23T02:11:48.860Z,38.50
2019-02-23T02:16:51.519Z,38.45
2019-02-23T02:21:54.277Z,38.43
2019-02-23T02:26:56.940Z,38.43
2019-02-23T02:31:59.625Z,38.32
2019-02-23T02:37:02.304Z,38.21
2019-02-23T02:42:04.950Z,38.17
2019-02-23T02:47:07.627Z,38.09
2019-02-23T02:52:10.270Z,38.09
2019-02-23T02:57:12.939Z,38.01
2019-02-23T03:02:15.584Z,37.96
2019-02-23T03:07:18.252Z,37.94
2019-02-23T03:12:20.960Z,37.83
2019-02-23T03:17:23.608Z,37.79
2019-02-23T03:22:26.276Z,37.73
2019-02-23T03:27:28.948Z,37.71
2019-02-23T03:32:31.627Z,37.61
2019-02-23T03:37:34.296Z,37.55
2019-02-23T03:42:36.991Z,37.44
2019-02-23T03:47:39.667Z,37.34
2019-02-23T03:52:42.341Z,37.28
2019-02-23T03:57:45.019Z,37.19
2019-02-23T04:02:47.663Z,37.07
2019-02-23T04:07:50.331Z,37.02
2019-02-23T04:12:53.014Z,36.94
2019-02-23T04:17:55.671Z,36.91
2019-02-23T04:22:58.319Z,36.85
2019-02-23T04:28:01.135Z,36.72
2019-02-23T04:33:03.851Z,36.58
2019-02-23T04:38:06.530Z,36.59
2019-02-23T04:43:09.207Z,36.50
2019-02-23T04:48:11.878Z,36.39
2019-02-23T04:53:14.557Z,36.28
2019-02-23T04:58:17.229Z,36.17
2019-02-23T05:03:19.907Z,36.11
2019-02-23T05:08:22.642Z,36.02
2019-02-23T05:13:25.328Z,35.95
2019-02-23T05:18:28.004Z,35.96
2019-02-23T05:23:30.759Z,35.90
2019-02-23T05:28:33.495Z,35.95
2019-02-23T05:33:36.156Z,35.93
2019-02-23T05:38:38.821Z,35.97
2019-02-23T05:43:41.492Z,35.97
2019-02-23T05:48:44.151Z,35.96
2019-02-23T05:53:46.855Z,35.93
2019-02-23T05:58:49.535Z,35.89
2019-02-23T06:03:52.193Z,35.89
2019-02-23T06:08:54.859Z,35.84
2019-02-23T06:13:57.524Z,35.72
2019-02-23T06:19:00.233Z,35.71
2019-02-23T06:24:02.911Z,35.67
2019-02-23T06:29:05.599Z,35.65
2019-02-23T06:34:16.165Z,35.67
2019-02-23T06:39:12.635Z,35.69
2019-02-23T06:44:15.343Z,35.75
2019-02-23T06:49:17.992Z,35.97
2019-02-23T06:54:20.785Z,36.17
2019-02-23T06:59:23.583Z,36.22
2019-02-23T07:04:26.350Z,36.14
2019-02-23T07:09:29.156Z,36.07
2019-02-23T07:14:32.319Z,36.10
2019-02-23T07:19:35.108Z,36.09
2019-02-23T07:24:37.902Z,36.06
2019-02-23T07:29:40.685Z,36.03
2019-02-23T07:34:43.469Z,36.14
2019-02-23T07:39:46.330Z,36.25
2019-02-23T07:44:49.118Z,36.33
2019-02-23T07:49:51.900Z,36.46
2019-02-23T07:54:54.689Z,36.61
2019-02-23T07:59:57.484Z,36.58
2019-02-23T08:05:00.330Z,36.51
2019-02-23T08:10:03.145Z,36.50
2019-02-23T08:15:07.612Z,36.54
2019-02-23T08:20:13.473Z,36.64
2019-02-23T08:25:16.273Z,36.90
2019-02-23T08:30:19.033Z,37.19
2019-02-23T08:35:21.820Z,37.10
2019-02-23T08:40:24.628Z,37.27
2019-02-23T08:45:27.487Z,37.27
2019-02-23T08:50:30.330Z,37.14
2019-02-23T08:55:33.105Z,37.03
2019-02-23T09:00:35.961Z,37.17
2019-02-23T09:05:38.798Z,37.15
2019-02-23T09:10:41.584Z,36.93
2019-02-23T09:15:44.375Z,35.35
2019-02-23T09:20:47.278Z,32.36
2019-02-23T09:25:50.064Z,29.93
2019-02-23T09:30:52.856Z,30.09
2019-02-23T09:35:55.636Z,29.92
2019-02-23T09:40:58.416Z,29.02
2019-02-23T09:46:01.181Z,28.42
2019-02-23T09:51:04.048Z,28.29
2019-02-23T09:56:06.825Z,28.15
2019-02-23T10:01:09.607Z,28.07
2019-02-23T10:06:12.405Z,27.86
2019-02-23T10:11:15.172Z,27.36
2019-02-23T10:16:17.939Z,27.01
2019-02-23T10:21:20.724Z,26.54
2019-02-23T10:26:23.528Z,26.79
2019-02-23T10:31:26.316Z,26.13
2019-02-23T10:36:29.096Z,26.51
2019-02-23T10:41:31.878Z,26.56
2019-02-23T10:46:34.664Z,26.20
2019-02-23T10:51:37.527Z,25.98
2019-02-23T10:56:40.407Z,25.67
2019-02-23T11:01:43.204Z,25.28
2019-02-23T11:06:46.010Z,25.27
2019-02-23T11:11:48.815Z,24.76
2019-02-23T11:16:51.664Z,25.18
2019-02-23T11:21:54.537Z,24.89
2019-02-23T11:26:57.304Z,24.75
2019-02-23T11:32:00.098Z,24.87
2019-02-23T11:37:02.879Z,24.57
2019-02-23T11:42:05.686Z,23.35
2019-02-23T11:47:08.516Z,23.93
2019-02-23T11:52:11.300Z,24.55
2019-02-23T11:57:14.087Z,24.14
2019-02-23T12:02:16.848Z,24.15
2019-02-23T12:07:19.638Z,24.03
2019-02-23T12:12:22.440Z,23.64
2019-02-23T12:17:25.227Z,24.12
2019-02-23T12:22:28.044Z,24.00
2019-02-23T12:27:30.828Z,23.74
2019-02-23T12:32:33.691Z,23.57
2019-02-23T12:37:36.492Z,23.65
2019-02-23T12:42:39.357Z,23.64
2019-02-23T12:47:42.208Z,23.75
2019-02-23T12:52:44.995Z,23.30
2019-02-23T12:57:47.777Z,23.69
2019-02-23T13:02:50.668Z,23.28
2019-02-23T13:07:53.528Z,23.25
2019-02-23T13:13:00.801Z,23.20
2019-02-23T13:18:11.172Z,23.28
2019-02-23T13:23:24.687Z,23.23
2019-02-23T13:28:28.993Z,23.34
2019-02-23T13:33:39.067Z,23.41
2019-02-23T13:38:49.271Z,23.50
2019-02-23T13:44:05.307Z,23.67
2019-02-23T13:49:19.322Z,23.62
2019-02-23T13:54:26.389Z,23.63
2019-02-23T13:59:52.801Z,23.70
2019-02-23T14:05:06.213Z,23.90
2019-02-23T14:10:25.885Z,23.33
2019-02-23T14:15:45.199Z,23.00
2019-02-23T14:20:49.483Z,22.54
2019-02-23T14:26:03.180Z,22.52
2019-02-23T14:31:10.395Z,22.61
2019-02-23T14:36:26.969Z,22.76
2019-02-23T14:41:31.268Z,22.92
2019-02-23T14:46:41.809Z,23.14
2019-02-23T14:51:46.101Z,23.33
2019-02-23T14:56:53.478Z,23.54
2019-02-23T15:02:00.563Z,23.72
2019-02-23T15:07:21.268Z,23.94
2019-02-23T15:12:25.545Z,24.12
2019-02-23T15:17:29.829Z,24.29
2019-02-23T15:22:40.105Z,24.46
2019-02-23T15:27:44.380Z,24.60
2019-02-23T15:33:05.559Z,24.75
2019-02-23T15:38:25.128Z,24.90
2019-02-23T15:43:32.207Z,25.05
2019-02-23T15:48:48.394Z,25.13
2019-02-23T15:53:51.243Z,25.17
2019-02-23T15:58:53.976Z,25.31
2019-02-23T16:03:56.770Z,25.43
2019-02-23T16:08:59.554Z,25.58
2019-02-23T16:14:02.521Z,25.68
2019-02-23T16:19:05.257Z,25.82
2019-02-23T16:24:08.129Z,25.92
2019-02-23T16:29:11.095Z,26.01
2019-02-23T16:34:13.894Z,26.12
2019-02-23T16:39:16.741Z,26.35
2019-02-23T16:44:19.529Z,26.59
2019-02-23T16:49:22.311Z,27.05
2019-02-23T16:54:25.086Z,27.20
2019-02-23T16:59:27.875Z,27.33
2019-02-23T17:04:30.645Z,27.44
2019-02-23T17:09:33.528Z,27.56
2019-02-23T17:14:36.348Z,27.60
2019-02-23T17:19:39.162Z,27.64
2019-02-23T17:24:41.900Z,27.70
2019-02-23T17:29:44.700Z,27.74
2019-02-23T17:34:47.480Z,27.79
2019-02-23T17:39:50.248Z,27.83
2019-02-23T17:44:53.105Z,27.90
2019-02-23T17:49:55.896Z,27.90
2019-02-23T17:54:58.679Z,27.93
2019-02-23T18:00:01.515Z,28.00
2019-02-23T18:05:05.144Z,28.08
2019-02-23T18:10:08.098Z,28.14
2019-02-23T18:15:11.067Z,28.15
2019-02-23T18:20:14.005Z,28.27
2019-02-23T18:25:16.783Z,28.31
2019-02-23T18:30:19.633Z,28.42
2019-02-23T18:35:22.412Z,28.39
2019-02-23T18:40:25.205Z,28.53
2019-02-23T18:45:28.036Z,28.63
2019-02-23T18:50:30.823Z,28.70
2019-02-23T18:55:40.901Z,28.79
2019-02-23T19:00:38.173Z,28.92
2019-02-23T19:05:49.449Z,29.00
2019-02-23T19:10:45.648Z,28.99
2019-02-23T19:15:48.559Z,29.08
2019-02-23T19:20:51.327Z,29.06
2019-02-23T19:25:54.160Z,29.14
2019-02-23T19:30:56.923Z,29.14
2019-02-23T19:35:59.711Z,29.12
2019-02-23T19:41:02.967Z,29.15
2019-02-23T19:46:05.760Z,29.21
2019-02-23T19:51:09.096Z,29.24
2019-02-23T19:56:11.881Z,29.24
2019-02-23T20:01:17.555Z,29.27
2019-02-23T20:06:20.350Z,29.27
2019-02-23T20:11:23.204Z,29.28
2019-02-23T20:16:26.000Z,29.32
2019-02-23T20:21:28.787Z,29.34
2019-02-23T20:26:31.556Z,29.45
2019-02-23T20:31:34.360Z,29.51
2019-02-23T20:36:37.230Z,29.63
2019-02-23T20:41:40.016Z,29.58
2019-02-23T20:46:42.804Z,29.66
2019-02-23T20:51:45.603Z,29.63
2019-02-23T20:56:48.395Z,29.65
2019-02-23T21:01:51.187Z,29.67
2019-02-23T21:06:53.990Z,29.69
2019-02-23T21:11:56.779Z,30.08
2019-02-23T21:16:59.592Z,30.54
2019-02-23T21:22:02.412Z,30.94
2019-02-23T21:27:12.801Z,31.41
2019-02-23T21:32:09.675Z,31.66
2019-02-23T21:37:12.475Z,31.61
2019-02-23T21:42:16.254Z,31.55
2019-02-23T21:47:19.053Z,31.53
2019-02-23T21:52:21.862Z,31.47
2019-02-23T21:57:24.648Z,31.38
2019-02-23T22:02:27.445Z,31.34
2019-02-23T22:07:30.255Z,32.36
2019-02-23T22:12:33.066Z,36.56
2019-02-23T22:17:36.531Z,40.31
2019-02-23T22:22:39.341Z,43.24
2019-02-23T22:27:42.137Z,45.30
2019-02-23T22:32:44.949Z,46.43
2019-02-23T22:37:47.726Z,47.81
2019-02-23T22:42:50.560Z,48.57
2019-02-23T22:47:53.328Z,50.37
2019-02-23T22:52:56.110Z,51.09
2019-02-23T22:57:58.896Z,51.46
2019-02-23T23:03:01.684Z,51.43
2019-02-23T23:08:04.544Z,51.61
2019-02-23T23:13:07.330Z,51.76
2019-02-23T23:18:10.096Z,52.06
2019-02-23T23:23:12.883Z,52.09
2019-02-23T23:28:15.644Z,52.37
2019-02-23T23:33:18.407Z,52.31
2019-02-23T23:38:21.192Z,52.58
2019-02-23T23:43:23.980Z,52.66
2019-02-23T23:48:28.668Z,52.63
2019-02-23T23:53:31.199Z,52.82
2019-02-23T23:58:33.973Z,52.76
